createdAt,value
2019-05-15T00:00:48.019Z,69.05
2019-05-15T00:03:20.614Z,66.35
2019-05-15T00:05:52.037Z,69.20
2019-05-15T00:08:24.511Z,63.10
2019-05-15T00:10:58.080Z,57.38
2019-05-15T00:13:29.666Z,69.92
2019-05-15T00:16:01.728Z,65.40
2019-05-15T00:18:33.384Z,66.85
2019-05-15T00:21:05.138Z,66.25
2019-05-15T00:23:38.720Z,73.28
2019-05-15T00:26:10.939Z,62.30
2019-05-15T00:28:42.788Z,57.10
2019-05-15T00:31:14.958Z,67.95
2019-05-15T00:33:48.248Z,65.45
2019-05-15T00:36:20.309Z,68.60
2019-05-15T00:38:51.968Z,68.87
2019-05-15T00:41:23.726Z,77.15
2019-05-15T00:43:58.557Z,68.07
2019-05-15T00:46:29.983Z,65.42
2019-05-15T00:49:01.840Z,60.35
2019-05-15T00:51:33.803Z,63.45
2019-05-15T00:54:08.285Z,77.92
2019-05-15T00:56:39.784Z,68.70
2019-05-15T00:59:23.198Z,64.35
2019-05-15T01:01:45.108Z,69.77
2019-05-15T01:04:18.749Z,68.57
2019-05-15T01:06:52.657Z,69.53
2019-05-15T01:09:25.429Z,74.75
2019-05-15T01:11:58.715Z,77.53
2019-05-15T01:14:30.371Z,73.62
2019-05-15T01:17:02.139Z,67.75
2019-05-15T01:19:34.095Z,70.03
2019-05-15T01:22:05.640Z,85.75
2019-05-15T01:24:38.922Z,77.70
2019-05-15T01:27:10.606Z,74.35
2019-05-15T01:29:45.190Z,81.72
2019-05-15T01:32:15.952Z,91.45
2019-05-15T01:34:49.031Z,79.03
2019-05-15T01:37:20.689Z,93.20
2019-05-15T01:39:52.378Z,91.37
2019-05-15T01:42:24.106Z,85.00
2019-05-15T01:44:56.071Z,74.32
2019-05-15T01:47:28.169Z,71.45
2019-05-15T01:49:59.895Z,73.83
2019-05-15T01:52:32.009Z,69.62
2019-05-15T01:55:04.885Z,87.37
2019-05-15T01:57:38.391Z,75.60
2019-05-15T02:00:10.489Z,75.12
2019-05-15T02:02:42.680Z,75.97
2019-05-15T02:05:15.150Z,70.80
2019-05-15T02:07:47.892Z,71.85
2019-05-15T02:10:19.479Z,73.55
2019-05-15T02:12:51.132Z,75.10
2019-05-15T02:15:22.889Z,77.15
2019-05-15T02:17:54.747Z,66.33
2019-05-15T02:20:28.954Z,66.40
2019-05-15T02:22:59.810Z,63.50
2019-05-15T02:25:31.251Z,65.10
2019-05-15T02:28:03.165Z,81.12
2019-05-15T02:30:34.786Z,85.20
2019-05-15T02:33:10.079Z,77.27
2019-05-15T02:35:39.967Z,76.80
2019-05-15T02:38:15.379Z,68.30
2019-05-15T02:40:44.561Z,73.78
2019-05-15T02:43:19.015Z,75.08
2019-05-15T02:45:50.845Z,87.08
2019-05-15T02:48:22.502Z,77.17
2019-05-15T02:50:54.964Z,88.42
2019-05-15T02:53:29.923Z,80.75
2019-05-15T02:56:00.838Z,72.25
2019-05-15T02:58:32.392Z,70.83
2019-05-15T03:01:04.456Z,66.92
2019-05-15T03:03:38.749Z,68.50
2019-05-15T03:06:10.205Z,68.07
2019-05-15T03:08:41.770Z,65.65
2019-05-15T03:11:13.767Z,75.90
2019-05-15T03:13:46.108Z,67.50
2019-05-15T03:16:19.384Z,65.72
2019-05-15T03:18:55.265Z,80.00
2019-05-15T03:21:24.147Z,68.67
2019-05-15T03:23:59.252Z,88.80
2019-05-15T03:26:30.088Z,69.07
2019-05-15T03:29:01.980Z,74.72
2019-05-15T03:31:49.424Z,75.42
2019-05-15T03:34:19.293Z,60.08
2019-05-15T03:36:44.948Z,70.78
2019-05-15T03:39:14.435Z,79.42
2019-05-15T03:41:49.539Z,70.10
2019-05-15T03:44:20.057Z,68.05
2019-05-15T03:46:51.754Z,65.50
2019-05-15T03:49:23.506Z,64.62
2019-05-15T03:51:55.305Z,70.83
2019-05-15T03:54:29.313Z,87.82
2019-05-15T03:57:00.214Z,71.97
2019-05-15T03:59:31.781Z,54.38
2019-05-15T04:02:03.970Z,54.75
2019-05-15T04:04:38.629Z,56.88
2019-05-15T04:07:10.009Z,54.40
2019-05-15T04:09:41.460Z,48.60
2019-05-15T04:12:13.229Z,43.40
2019-05-15T04:14:45.284Z,49.30
2019-05-15T04:17:19.721Z,51.55
2019-05-15T04:19:49.927Z,48.83
2019-05-15T04:22:21.786Z,46.77
2019-05-15T04:24:54.879Z,37.83
2019-05-15T04:27:29.012Z,37.38
2019-05-15T04:30:00.741Z,34.27
2019-05-15T04:32:33.110Z,35.90
2019-05-15T04:35:09.217Z,31.55
2019-05-15T04:37:41.295Z,48.48
2019-05-15T04:40:13.507Z,42.33
2019-05-15T04:42:45.462Z,41.98
2019-05-15T04:45:19.453Z,40.03
2019-05-15T04:47:50.725Z,37.73
2019-05-15T04:50:22.276Z,34.48
2019-05-15T04:52:54.393Z,45.43
2019-05-15T04:55:28.974Z,39.95
2019-05-15T04:57:59.714Z,42.50
2019-05-15T05:00:49.698Z,46.48
2019-05-15T05:03:22.240Z,39.60
2019-05-15T05:05:54.016Z,41.48
2019-05-15T05:08:30.386Z,36.60
2019-05-15T05:11:01.727Z,42.48
2019-05-15T05:13:34.619Z,42.50
2019-05-15T05:16:09.219Z,33.95
2019-05-15T05:18:41.674Z,33.63
2019-05-15T05:21:13.566Z,35.78
2019-05-15T05:23:45.476Z,35.15
2019-05-15T05:26:18.517Z,33.80
2019-05-15T05:28:50.279Z,40.90
2019-05-15T05:31:21.927Z,38.08
2019-05-15T05:33:53.786Z,31.25
2019-05-15T05:36:27.900Z,34.23
2019-05-15T05:38:59.555Z,41.37
2019-05-15T05:41:31.324Z,39.65
2019-05-15T05:44:03.587Z,36.15
2019-05-15T05:46:35.036Z,29.60
2019-05-15T05:49:08.076Z,29.75
2019-05-15T05:51:39.777Z,20.88
2019-05-15T05:54:12.247Z,28.67
2019-05-15T05:56:44.019Z,39.30
2019-05-15T05:59:15.705Z,20.35
2019-05-15T06:01:48.547Z,18.67
2019-05-15T06:04:20.201Z,22.40
2019-05-15T06:07:05.910Z,23.27
2019-05-15T06:09:27.652Z,56.00
2019-05-15T06:11:59.264Z,35.92
2019-05-15T06:14:30.816Z,23.05
2019-05-15T06:17:02.469Z,20.25
2019-05-15T06:19:34.430Z,19.20
2019-05-15T06:22:08.592Z,23.35
2019-05-15T06:24:39.279Z,19.45
2019-05-15T06:27:11.036Z,21.57
2019-05-15T06:29:42.995Z,13.85
2019-05-15T06:32:14.446Z,18.20
2019-05-15T06:34:48.368Z,13.13
2019-05-15T06:37:19.845Z,18.07
2019-05-15T06:39:51.567Z,17.62
2019-05-15T06:42:23.076Z,21.30
2019-05-15T06:44:54.466Z,36.45
2019-05-15T06:47:28.336Z,17.87
2019-05-15T06:49:59.105Z,21.37
2019-05-15T06:52:30.770Z,21.00
2019-05-15T06:55:02.623Z,20.90
2019-05-15T06:57:34.580Z,40.30
2019-05-15T07:00:08.426Z,27.55
2019-05-15T07:02:40.758Z,13.32
2019-05-15T07:05:12.628Z,22.17
2019-05-15T07:07:44.167Z,28.80
2019-05-15T07:10:16.017Z,27.48
2019-05-15T07:12:51.002Z,26.87
2019-05-15T07:15:21.078Z,33.50
2019-05-15T07:17:52.534Z,29.52
2019-05-15T07:20:24.376Z,19.55
2019-05-15T07:22:58.444Z,25.70
2019-05-15T07:25:29.409Z,34.55
2019-05-15T07:28:01.098Z,39.08
2019-05-15T07:30:32.752Z,38.80
2019-05-15T07:33:04.302Z,29.77
2019-05-15T07:35:38.473Z,28.15
2019-05-15T07:38:09.556Z,27.62
2019-05-15T07:40:41.113Z,25.25
2019-05-15T07:43:13.077Z,20.77
2019-05-15T07:45:44.917Z,23.35
2019-05-15T07:48:18.480Z,18.57
2019-05-15T07:50:50.037Z,19.85
2019-05-15T07:53:21.847Z,21.82
2019-05-15T07:55:53.510Z,18.77
2019-05-15T07:58:25.053Z,20.15
2019-05-15T08:00:58.984Z,18.67
2019-05-15T08:03:31.134Z,19.40
2019-05-15T08:06:03.269Z,20.97
2019-05-15T08:08:34.949Z,23.92
2019-05-15T08:11:17.517Z,17.45
2019-05-15T08:13:39.904Z,18.45
2019-05-15T08:16:11.856Z,15.58
2019-05-15T08:18:43.409Z,14.10
2019-05-15T08:21:15.112Z,17.67
2019-05-15T08:23:48.434Z,16.67
2019-05-15T08:26:20.323Z,16.67
2019-05-15T08:28:51.892Z,15.88
2019-05-15T08:31:23.731Z,19.23
2019-05-15T08:34:09.092Z,18.12
2019-05-15T08:36:31.271Z,22.52
2019-05-15T08:39:04.752Z,16.15
2019-05-15T08:41:38.835Z,15.55
2019-05-15T08:44:09.989Z,10.32
2019-05-15T08:46:44.302Z,12.63
2019-05-15T08:49:14.942Z,13.13
2019-05-15T08:51:48.635Z,12.95
2019-05-15T08:54:20.398Z,12.90
2019-05-15T08:56:51.976Z,10.15
2019-05-15T08:59:23.710Z,9.28
2019-05-15T09:01:55.684Z,11.80
2019-05-15T09:04:33.890Z,11.60
2019-05-15T09:07:01.253Z,12.70
2019-05-15T09:09:34.016Z,16.37
2019-05-15T09:12:08.254Z,12.65
2019-05-15T09:14:39.891Z,11.65
2019-05-15T09:17:11.958Z,17.45
2019-05-15T09:19:43.658Z,10.80
2019-05-15T09:22:15.686Z,12.80
2019-05-15T09:24:48.867Z,17.00
2019-05-15T09:27:20.616Z,11.35
2019-05-15T09:29:52.482Z,18.70
2019-05-15T09:32:24.237Z,14.65
2019-05-15T09:34:59.003Z,22.10
2019-05-15T09:37:29.389Z,22.77
2019-05-15T09:40:01.355Z,19.45
2019-05-15T09:42:38.711Z,18.60
2019-05-15T09:45:09.786Z,29.50
2019-05-15T09:47:41.294Z,16.67
2019-05-15T09:50:13.052Z,14.28
2019-05-15T09:52:44.751Z,17.25
2019-05-15T09:55:18.003Z,14.63
2019-05-15T09:57:49.701Z,22.70
2019-05-15T10:00:22.519Z,24.57
2019-05-15T10:02:54.449Z,34.63
2019-05-15T10:05:28.001Z,32.73
2019-05-15T10:07:59.490Z,25.43
2019-05-15T10:10:31.350Z,27.80
2019-05-15T10:13:03.415Z,19.95
2019-05-15T10:15:34.970Z,22.10
2019-05-15T10:18:09.734Z,22.62
2019-05-15T10:20:40.126Z,26.73
2019-05-15T10:23:11.913Z,29.15
2019-05-15T10:25:43.838Z,36.25
2019-05-15T10:28:18.662Z,29.20
2019-05-15T10:30:49.756Z,30.88
2019-05-15T10:33:21.878Z,27.85
2019-05-15T10:35:53.321Z,33.23
2019-05-15T10:38:25.385Z,24.30
2019-05-15T10:41:07.964Z,26.65
2019-05-15T10:43:30.029Z,26.75
2019-05-15T10:46:01.698Z,32.00
2019-05-15T10:48:34.565Z,28.47
2019-05-15T10:51:09.762Z,24.70
2019-05-15T10:53:40.597Z,19.87
2019-05-15T10:56:12.314Z,14.18
2019-05-15T10:58:43.745Z,14.47
2019-05-15T11:01:16.081Z,18.98
2019-05-15T11:03:49.540Z,20.15
2019-05-15T11:06:20.761Z,14.83
2019-05-15T11:08:52.623Z,16.70
2019-05-15T11:11:24.073Z,18.45
2019-05-15T11:14:00.267Z,16.35
2019-05-15T11:16:28.947Z,19.80
2019-05-15T11:19:00.679Z,19.15
2019-05-15T11:21:32.640Z,18.55
2019-05-15T11:24:04.398Z,16.55
2019-05-15T11:26:36.051Z,21.10
2019-05-15T11:29:09.662Z,26.70
2019-05-15T11:31:41.099Z,21.20
2019-05-15T11:34:12.855Z,23.80
2019-05-15T11:36:44.521Z,20.88
2019-05-15T11:39:18.252Z,18.35
2019-05-15T11:41:50.096Z,16.30
2019-05-15T11:44:21.732Z,24.20
2019-05-15T11:46:53.494Z,15.68
2019-05-15T11:49:25.041Z,14.95
2019-05-15T11:52:00.674Z,20.08
2019-05-15T11:54:31.220Z,19.00
2019-05-15T11:57:02.869Z,16.80
2019-05-15T11:59:34.837Z,22.95
2019-05-15T12:02:08.535Z,13.85
2019-05-15T12:04:40.497Z,19.12
2019-05-15T12:07:12.255Z,19.07
2019-05-15T12:09:43.703Z,15.55
2019-05-15T12:12:15.153Z,14.53
2019-05-15T12:14:49.614Z,15.25
2019-05-15T12:17:20.100Z,14.68
2019-05-15T12:19:58.408Z,18.67
2019-05-15T12:22:24.920Z,17.82
2019-05-15T12:25:00.147Z,23.85
2019-05-15T12:27:29.511Z,20.35
2019-05-15T12:30:01.371Z,23.62
2019-05-15T12:32:36.830Z,16.60
2019-05-15T12:35:07.873Z,19.85
2019-05-15T13:00:42.104Z,17.55
2019-05-15T13:03:14.373Z,16.48
2019-05-15T13:05:48.394Z,15.50
2019-05-15T13:08:19.729Z,17.57
2019-05-15T13:10:51.184Z,15.08
2019-05-15T13:13:23.143Z,17.52
2019-05-15T13:15:54.806Z,15.68
2019-05-15T13:18:28.453Z,20.45
2019-05-15T13:20:59.809Z,16.75
2019-05-15T13:23:31.627Z,20.57
2019-05-15T13:26:03.793Z,18.60
2019-05-15T13:28:35.728Z,19.95
2019-05-15T13:31:09.173Z,17.35
2019-05-15T13:33:41.090Z,17.85
2019-05-15T13:36:12.437Z,18.90
2019-05-15T13:38:44.188Z,19.77
2019-05-15T13:41:18.935Z,19.87
2019-05-15T13:43:50.159Z,21.60
2019-05-15T13:46:21.945Z,23.45
2019-05-15T13:48:53.985Z,20.40
2019-05-15T13:51:25.843Z,23.57
2019-05-15T13:53:57.811Z,21.82
2019-05-15T13:56:29.464Z,19.60
2019-05-15T13:59:02.348Z,20.70
2019-05-15T14:01:34.363Z,23.65
2019-05-15T14:04:08.579Z,18.37
2019-05-15T14:06:40.894Z,20.20
2019-05-15T14:09:12.449Z,27.52
2019-05-15T14:11:44.409Z,22.22
2019-05-15T14:14:15.767Z,21.55
2019-05-15T14:16:49.131Z,21.77
2019-05-15T14:19:20.805Z,21.02
2019-05-15T14:21:52.565Z,22.85
2019-05-15T14:24:24.628Z,20.15
2019-05-15T14:26:59.146Z,26.85
2019-05-15T14:29:30.089Z,26.52
2019-05-15T14:32:02.767Z,32.85
2019-05-15T14:34:34.526Z,22.85
2019-05-15T14:37:08.525Z,23.42
2019-05-15T14:39:39.188Z,25.30
2019-05-15T14:42:10.822Z,24.67
2019-05-15T14:44:42.574Z,26.20
2019-05-15T14:47:14.237Z,22.58
2019-05-15T14:49:49.277Z,29.90
2019-05-15T14:52:19.399Z,33.25
2019-05-15T14:54:50.841Z,23.95
2019-05-15T14:57:22.696Z,73.15
2019-05-15T14:59:54.480Z,30.48
2019-05-15T15:02:26.732Z,31.80
2019-05-15T15:04:59.471Z,23.05
2019-05-15T15:07:31.978Z,24.87
2019-05-15T15:10:04.920Z,25.37
2019-05-15T15:12:39.177Z,25.82
2019-05-15T15:15:10.709Z,23.50
2019-05-15T15:17:42.693Z,24.18
2019-05-15T15:20:14.864Z,21.68
2019-05-15T15:22:48.596Z,20.40
2019-05-15T15:25:20.219Z,18.70
2019-05-15T15:27:52.076Z,21.33
2019-05-15T15:30:24.043Z,18.65
2019-05-15T15:32:57.613Z,18.45
2019-05-15T15:35:28.998Z,14.33
2019-05-15T15:38:01.571Z,19.12
2019-05-15T15:40:33.322Z,22.30
2019-05-15T15:43:05.396Z,17.37
2019-05-15T15:45:39.016Z,23.05
2019-05-15T15:48:10.047Z,16.73
2019-05-15T15:50:41.578Z,14.83
2019-05-15T15:53:13.698Z,18.52
2019-05-15T15:55:45.611Z,15.10
2019-05-15T15:58:19.712Z,13.62
2019-05-15T16:00:50.327Z,20.20
2019-05-15T16:03:21.750Z,39.30
2019-05-15T16:05:53.331Z,14.85
2019-05-15T16:08:24.819Z,27.02
2019-05-15T16:10:56.186Z,15.88
2019-05-15T16:13:29.199Z,14.30
2019-05-15T16:16:00.913Z,20.77
2019-05-15T16:18:32.520Z,24.92
2019-05-15T16:21:04.027Z,21.55
2019-05-15T16:23:42.677Z,19.75
2019-05-15T16:26:14.050Z,20.30
2019-05-15T16:28:45.483Z,17.73
2019-05-15T16:31:18.630Z,27.70
2019-05-15T16:33:50.346Z,15.65
2019-05-15T16:36:21.873Z,19.52
2019-05-15T16:39:05.320Z,17.52
2019-05-15T16:41:28.838Z,20.92
2019-05-15T16:43:59.781Z,40.28
2019-05-15T16:46:31.285Z,64.45
2019-05-15T16:49:03.010Z,30.17
2019-05-15T16:51:34.444Z,17.07
2019-05-15T16:54:08.429Z,22.82
2019-05-15T16:56:40.243Z,23.67
2019-05-15T16:59:11.948Z,22.25
2019-05-15T17:01:44.101Z,27.55
2019-05-15T17:04:18.031Z,23.25
2019-05-15T17:06:49.461Z,17.25
2019-05-15T17:09:21.868Z,17.02
2019-05-15T17:11:53.821Z,26.10
2019-05-15T17:14:28.807Z,24.87
2019-05-15T17:16:59.585Z,31.02
2019-05-15T17:19:31.086Z,32.33
2019-05-15T17:22:02.544Z,42.10
2019-05-15T17:24:33.929Z,34.98
2019-05-15T17:27:05.488Z,46.53
2019-05-15T17:29:38.510Z,48.40
2019-05-15T17:32:10.028Z,57.98
2019-05-15T17:34:41.429Z,55.38
2019-05-15T17:37:12.795Z,49.67
2019-05-15T17:39:44.227Z,48.52
2019-05-15T17:42:18.209Z,59.42
2019-05-15T17:44:49.694Z,63.25
2019-05-15T17:47:21.013Z,68.35
2019-05-15T17:52:23.149Z,57.48
2019-05-15T17:54:54.944Z,68.28
2019-05-15T17:57:28.458Z,51.40
2019-05-15T17:59:59.875Z,46.90
2019-05-15T18:02:31.930Z,65.20
2019-05-15T18:05:04.958Z,72.35
2019-05-15T18:07:38.849Z,37.00
2019-05-15T18:10:10.423Z,73.87
2019-05-15T18:12:42.016Z,64.37
2019-05-15T18:15:14.071Z,62.05
2019-05-15T18:17:47.921Z,76.82
2019-05-15T18:20:29.440Z,70.97
2019-05-15T18:23:01.790Z,50.90
2019-05-15T18:25:33.252Z,83.33
2019-05-15T18:28:05.046Z,87.15
2019-05-15T18:30:38.858Z,93.17
2019-05-15T18:33:10.177Z,89.32
2019-05-15T18:35:41.706Z,97.33
2019-05-15T18:38:13.083Z,112.20
2019-05-15T18:40:44.544Z,100.90
2019-05-15T18:43:17.986Z,104.83
2019-05-15T18:45:49.424Z,78.22
2019-05-15T18:48:20.848Z,57.45
2019-05-15T18:50:52.124Z,47.08
2019-05-15T18:53:24.006Z,61.35
2019-05-15T18:55:55.529Z,54.55
2019-05-15T18:58:26.993Z,94.35
2019-05-15T19:00:59.315Z,97.50
2019-05-15T19:03:31.271Z,112.57
2019-05-15T19:06:02.964Z,70.55
2019-05-15T19:08:35.381Z,80.03
2019-05-15T19:11:07.044Z,60.38
2019-05-15T19:13:38.944Z,79.60
2019-05-15T19:16:10.693Z,87.35
2019-05-15T19:18:42.358Z,65.37
2019-05-15T19:21:13.902Z,78.90
2019-05-15T19:23:47.346Z,58.85
2019-05-15T19:26:18.519Z,66.25
2019-05-15T19:31:26.618Z,66.70
2019-05-15T19:33:53.729Z,91.82
2019-05-15T19:38:55.473Z,89.80
2019-05-15T19:41:28.865Z,89.55
2019-05-15T19:44:00.894Z,91.80
2019-05-15T19:46:32.470Z,85.28
2019-05-15T19:49:04.225Z,87.92
2019-05-15T19:51:38.111Z,84.92
2019-05-15T19:54:10.196Z,100.10
2019-05-15T19:56:42.836Z,101.92
2019-05-15T19:59:14.493Z,111.62
2019-05-15T20:01:48.480Z,97.40
2019-05-15T20:04:19.500Z,115.42
2019-05-15T20:06:51.040Z,112.57
2019-05-15T20:09:22.563Z,126.42
2019-05-15T20:11:53.918Z,123.92
2019-05-15T20:14:25.528Z,118.95
2019-05-15T20:16:58.918Z,121.07
2019-05-15T20:19:30.773Z,121.72
2019-05-15T20:22:02.459Z,40.00
2019-05-15T20:24:34.468Z,38.20
2019-05-15T20:29:38.293Z,36.95
2019-05-15T20:32:09.689Z,32.67
2019-05-15T20:34:41.182Z,34.75
2019-05-15T20:39:43.062Z,29.72
2019-05-15T20:42:14.472Z,31.45
2019-05-15T20:44:48.419Z,38.55
2019-05-15T20:47:19.427Z,38.35
2019-05-15T20:49:50.724Z,28.07
2019-05-15T20:54:53.261Z,30.77
2019-05-15T20:57:24.703Z,28.40
2019-05-15T20:59:58.562Z,36.23
2019-05-15T21:02:29.952Z,31.70
2019-05-15T21:05:01.426Z,37.38
2019-05-15T21:07:38.096Z,36.00
2019-05-15T21:10:08.578Z,35.35
2019-05-15T21:12:41.445Z,40.45
2019-05-15T21:15:14.323Z,35.85
2019-05-15T21:17:55.128Z,44.93
2019-05-15T21:20:19.399Z,41.92
2019-05-15T21:22:50.904Z,40.52
2019-05-15T21:27:52.651Z,46.13
2019-05-15T21:30:24.115Z,41.15
2019-05-15T21:32:58.090Z,36.73
2019-05-15T21:35:30.574Z,39.23
2019-05-15T21:38:01.953Z,36.13
2019-05-15T21:40:33.511Z,44.93
2019-05-15T21:43:05.088Z,44.63
2019-05-15T21:45:37.643Z,35.75
2019-05-15T21:48:09.722Z,32.28
2019-05-15T21:53:11.619Z,38.75
2019-05-15T21:55:43.232Z,30.23
2019-05-15T22:00:48.582Z,39.98
2019-05-15T22:03:20.963Z,35.33
2019-05-15T22:05:52.556Z,35.65
2019-05-15T22:08:24.417Z,33.60
2019-05-15T22:10:55.973Z,38.55
2019-05-15T22:13:28.620Z,35.30
2019-05-15T22:16:00.742Z,34.27
2019-05-15T22:18:32.340Z,42.60
2019-05-15T22:21:04.005Z,43.58
2019-05-15T22:26:05.942Z,50.33
2019-05-15T22:28:38.629Z,44.88
2019-05-15T22:31:11.440Z,43.02
2019-05-15T22:33:42.930Z,52.90
2019-05-15T22:36:14.577Z,44.73
2019-05-15T22:41:18.765Z,44.95
2019-05-15T22:43:49.320Z,43.52
2019-05-15T22:48:51.085Z,41.35
2019-05-15T22:51:22.690Z,44.08
2019-05-15T22:56:24.770Z,47.97
2019-05-15T23:01:26.721Z,52.73
2019-05-15T23:03:58.577Z,47.60
2019-05-15T23:06:30.155Z,49.13
2019-05-15T23:09:01.672Z,48.00
2019-05-15T23:11:34.620Z,49.18
2019-05-15T23:14:08.158Z,49.83
2019-05-15T23:16:39.289Z,49.53
2019-05-15T23:19:10.624Z,44.85
2019-05-15T23:21:42.075Z,45.83
2019-05-15T23:24:13.861Z,43.28
2019-05-15T23:26:47.658Z,39.03
2019-05-15T23:29:19.213Z,45.38
2019-05-15T23:31:50.871Z,42.70
2019-05-15T23:34:22.431Z,44.77
2019-05-15T23:36:53.977Z,50.17
2019-05-15T23:39:25.545Z,62.33
2019-05-15T23:41:58.463Z,45.08
2019-05-15T23:44:29.890Z,49.35
2019-05-15T23:47:01.244Z,47.35
2019-05-15T23:52:03.105Z,43.60
2019-05-15T23:54:34.639Z,42.50
2019-05-15T23:59:38.292Z,42.67
